Time;durP1;ratioP1;P1;durP2;ratioP2;P2;SDS_P1;SDS_P2;PMS_P1;PMS_P2;Temp;Humidity;BMP_temperature;BMP_pressure;BME280_temperature;BME280_humidity;BME280_pressure;Samples;Min_cycle;Max_cycle;Signal;HPM_P1;HPM_P2
2022/06/11 00:00:08;;;;;;;;;;;22.10;74.10;;;;;;5070626;28;19970;-73
2022/06/11 00:02:34;;;;;;;;;;;22.10;74.60;;;;;;5070968;28;20309;-74
2022/06/11 00:04:59;;;;;;;;;;;22.10;75.60;;;;;;5070788;28;20015;-73
2022/06/11 00:07:25;;;;;;;;;;;22.00;75.70;;;;;;5070375;28;19954;-74
2022/06/11 00:09:51;;;;;;;;;;;22.00;75.30;;;;;;5071982;28;19916;-73
2022/06/11 00:12:18;;;;;;;;;;;21.90;75.70;;;;;;5071515;28;20332;-73
2022/06/11 00:14:44;;;;;;;;;;;21.90;75.50;;;;;;5070400;28;19971;-73
2022/06/11 00:17:11;;;;;;;;;;;21.90;75.50;;;;;;5070264;28;19908;-74
2022/06/11 00:19:37;;;;;;;;;;;21.90;76.30;;;;;;5070302;28;19944;-73
2022/06/11 00:22:03;;;;;;;;;;;21.80;76.00;;;;;;5070240;28;19955;-74
2022/06/11 00:24:29;;;;;;;;;;;21.80;75.60;;;;;;5070201;28;19924;-73
2022/06/11 00:26:55;;;;;;;;;;;21.80;75.30;;;;;;5071597;28;19912;-75
2022/06/11 00:29:22;;;;;;;;;;;21.80;75.30;;;;;;5071473;28;19920;-73
2022/06/11 00:31:48;;;;;;;;;;;21.70;75.00;;;;;;5071497;28;20280;-72
2022/06/11 00:34:14;;;;;;;;;;;21.80;75.40;;;;;;5069918;28;20216;-72
2022/06/11 00:36:40;;;;;;;;;;;21.80;74.90;;;;;;5071286;28;19912;-73
2022/06/11 00:39:06;;;;;;;;;;;21.90;72.50;;;;;;5071338;28;20003;-73
2022/06/11 00:41:35;;;;;;;;;;;22.10;73.20;;;;;;5070094;28;20426;-73
2022/06/11 00:44:00;;;;;;;;;;;22.10;74.10;;;;;;5071386;28;19921;-72
2022/06/11 00:46:32;;;;;;;;;;;22.00;73.20;;;;;;5069976;28;19916;-73
2022/06/11 00:48:58;;;;;;;;;;;22.00;73.40;;;;;;5071445;28;19921;-74
2022/06/11 00:51:24;;;;;;;;;;;22.00;75.30;;;;;;5070102;28;20003;-73
2022/06/11 00:53:58;;;;;;;;;;;21.90;76.00;;;;;;5071120;28;20070;-73
2022/06/11 00:56:25;;;;;;;;;;;21.70;77.00;;;;;;5070032;28;20375;-73
2022/06/11 00:58:53;;;;;;;;;;;21.60;78.10;;;;;;5069705;28;19923;-73
2022/06/11 01:01:20;;;;;;;;;;;21.40;79.00;;;;;;5071019;28;19909;-74
2022/06/11 01:03:46;;;;;;;;;;;21.30;79.90;;;;;;5071092;28;20317;-73
2022/06/11 01:06:24;;;;;;;;;;;21.20;80.70;;;;;;5071080;28;19909;-73
2022/06/11 01:09:00;;;;;;;;;;;21.10;80.90;;;;;;5071017;28;19966;-74
2022/06/11 01:11:32;;;;;;;;;;;21.10;80.50;;;;;;5071074;28;19913;-75
2022/06/11 01:14:16;;;;;;;;;;;21.00;80.70;;;;;;5070519;28;19976;-74
2022/06/11 01:16:42;;;;;;;;;;;21.00;81.10;;;;;;5073656;28;19909;-72
2022/06/11 01:19:07;;;;;;;;;;;21.10;81.30;;;;;;5073478;28;19931;-73
2022/06/11 01:21:52;;;;;;;;;;;21.00;80.90;;;;;;5074904;28;20372;-73
2022/06/11 01:24:30;;;;;;;;;;;21.10;80.60;;;;;;5074701;28;19970;-72
2022/06/11 01:27:14;;;;;;;;;;;21.10;80.00;;;;;;5074836;28;19909;-72
2022/06/11 01:29:42;;;;;;;;;;;21.10;78.60;;;;;;5074513;28;19921;-72
2022/06/11 01:32:14;;;;;;;;;;;21.20;78.60;;;;;;5074518;28;19919;-73
2022/06/11 01:34:39;;;;;;;;;;;21.20;78.60;;;;;;5077474;28;20288;-72
2022/06/11 01:37:07;;;;;;;;;;;21.10;78.10;;;;;;5093640;28;19908;-72
2022/06/11 01:39:51;;;;;;;;;;;21.10;78.30;;;;;;5095008;28;19923;-72
2022/06/11 01:42:20;;;;;;;;;;;21.10;78.60;;;;;;5094862;28;19986;-73
2022/06/11 01:44:46;;;;;;;;;;;21.10;78.60;;;;;;5095067;28;19942;-73
2022/06/11 01:47:13;;;;;;;;;;;21.00;78.90;;;;;;5093487;28;19972;-73
2022/06/11 01:49:44;;;;;;;;;;;21.00;78.50;;;;;;5095136;28;20015;-73
2022/06/11 01:52:21;;;;;;;;;;;21.00;78.90;;;;;;5094875;28;19908;-73
2022/06/11 01:54:47;;;;;;;;;;;21.00;78.60;;;;;;5094817;28;19952;-73
2022/06/11 01:57:21;;;;;;;;;;;21.00;77.80;;;;;;5093431;28;20012;-73
2022/06/11 01:59:54;;;;;;;;;;;21.10;76.50;;;;;;5093327;28;19924;-73
2022/06/11 02:02:32;;;;;;;;;;;21.30;76.10;;;;;;5093356;28;19961;-73
2022/06/11 02:05:13;;;;;;;;;;;21.40;76.00;;;;;;5094697;28;19920;-72
2022/06/11 02:07:55;;;;;;;;;;;21.50;76.00;;;;;;5094809;28;20038;-73
2022/06/11 02:10:23;;;;;;;;;;;21.60;76.20;;;;;;5092935;28;20053;-73
2022/06/11 02:12:49;;;;;;;;;;;21.60;76.30;;;;;;5094069;28;20826;-73
2022/06/11 02:15:27;;;;;;;;;;;21.60;76.50;;;;;;5093001;28;20006;-73
2022/06/11 02:18:08;;;;;;;;;;;21.60;76.80;;;;;;5092655;28;19929;-73
2022/06/11 02:20:37;;;;;;;;;;;21.50;76.90;;;;;;5093848;28;19916;-72
2022/06/11 02:23:06;;;;;;;;;;;21.50;76.70;;;;;;5092739;28;20352;-72
2022/06/11 02:25:37;;;;;;;;;;;21.50;76.80;;;;;;5092632;28;19969;-74
2022/06/11 02:28:08;;;;;;;;;;;21.50;77.40;;;;;;5093118;28;23576;-73
2022/06/11 02:30:34;;;;;;;;;;;21.40;78.80;;;;;;5094327;28;19912;-72
2022/06/11 02:33:00;;;;;;;;;;;21.30;78.90;;;;;;5093900;28;19924;-72
2022/06/11 02:35:29;;;;;;;;;;;21.30;79.20;;;;;;5094407;28;20007;-73
2022/06/11 02:37:54;;;;;;;;;;;21.20;79.60;;;;;;5093679;28;19965;-73
2022/06/11 02:40:25;;;;;;;;;;;21.10;79.60;;;;;;5093949;28;20318;-72
2022/06/11 02:42:52;;;;;;;;;;;21.10;79.40;;;;;;5093592;28;20300;-73
2022/06/11 02:45:18;;;;;;;;;;;21.20;79.70;;;;;;5092238;28;20364;-73
2022/06/11 02:47:44;;;;;;;;;;;21.10;79.90;;;;;;5092256;28;20032;-73
2022/06/11 02:50:15;;;;;;;;;;;21.10;80.00;;;;;;5093840;28;19934;-73
2022/06/11 02:52:41;;;;;;;;;;;21.10;80.70;;;;;;5091807;28;19920;-72
2022/06/11 02:55:07;;;;;;;;;;;21.10;80.80;;;;;;5092038;28;19995;-73
2022/06/11 02:57:34;;;;;;;;;;;21.10;81.30;;;;;;5092011;28;20387;-73
2022/06/11 02:59:59;;;;;;;;;;;21.10;81.40;;;;;;5093529;28;19912;-72
2022/06/11 03:02:25;;;;;;;;;;;21.00;81.80;;;;;;5093146;28;19912;-72
2022/06/11 03:04:51;;;;;;;;;;;21.10;81.90;;;;;;5091846;28;19922;-71
2022/06/11 03:07:17;;;;;;;;;;;21.10;82.00;;;;;;5093201;28;19912;-72
2022/06/11 03:09:42;;;;;;;;;;;21.10;82.10;;;;;;5091701;28;19916;-72
2022/06/11 03:12:09;;;;;;;;;;;21.10;82.30;;;;;;5091920;28;19912;-73
2022/06/11 03:14:35;;;;;;;;;;;21.10;82.40;;;;;;5093048;28;19917;-73
2022/06/11 03:17:00;;;;;;;;;;;21.20;82.70;;;;;;5093016;28;20386;-73
2022/06/11 03:19:26;;;;;;;;;;;21.30;80.20;;;;;;5091661;28;19919;-72
2022/06/11 03:21:53;;;;;;;;;;;21.40;79.60;;;;;;5093008;28;20390;-73
2022/06/11 03:24:19;;;;;;;;;;;21.60;79.70;;;;;;5091279;28;19951;-74
2022/06/11 03:26:45;;;;;;;;;;;21.60;80.80;;;;;;5092836;28;19982;-72
2022/06/11 03:29:11;;;;;;;;;;;21.60;81.10;;;;;;5093080;28;20371;-74
2022/06/11 03:31:37;;;;;;;;;;;21.70;79.50;;;;;;5091490;28;19967;-73
2022/06/11 03:34:03;;;;;;;;;;;21.70;80.10;;;;;;5092841;28;19969;-73
2022/06/11 03:36:29;;;;;;;;;;;21.80;80.40;;;;;;5092762;28;19941;-73
2022/06/11 03:38:55;;;;;;;;;;;21.90;79.00;;;;;;5092259;28;20014;-73
2022/06/11 03:41:21;;;;;;;;;;;22.00;78.50;;;;;;5091113;28;20015;-72
2022/06/11 03:43:49;;;;;;;;;;;22.00;78.70;;;;;;5092439;28;19956;-73
2022/06/11 03:46:14;;;;;;;;;;;22.00;79.00;;;;;;5092431;28;19916;-72
2022/06/11 03:48:40;;;;;;;;;;;22.10;77.60;;;;;;5091061;28;19998;-73
2022/06/11 03:51:07;;;;;;;;;;;22.10;77.40;;;;;;5092296;28;19916;-74
2022/06/11 03:53:33;;;;;;;;;;;22.20;76.60;;;;;;5092260;28;20368;-74
2022/06/11 03:55:59;;;;;;;;;;;22.30;76.70;;;;;;5092079;28;20437;-72
2022/06/11 03:58:25;;;;;;;;;;;22.40;76.50;;;;;;5091026;28;19908;-73
2022/06/11 04:03:36;;;;;;;;;;;22.50;76.50;;;;;;5092567;28;20042;-73
2022/06/11 04:06:02;;;;;;;;;;;22.50;76.60;;;;;;5092189;28;19916;-73
2022/06/11 04:08:28;;;;;;;;;;;22.60;77.40;;;;;;5090825;28;19960;-73
2022/06/11 04:10:56;;;;;;;;;;;22.70;77.50;;;;;;5091925;28;20395;-73
2022/06/11 04:13:23;;;;;;;;;;;22.70;79.20;;;;;;5091973;28;19919;-72
2022/06/11 04:15:49;;;;;;;;;;;22.70;79.50;;;;;;5091877;28;19924;-70
2022/06/11 04:18:41;;;;;;;;;;;22.70;80.20;;;;;;5092292;28;19908;-74
2022/06/11 04:21:09;;;;;;;;;;;23.10;76.20;;;;;;5086430;28;19920;-74
2022/06/11 04:23:35;;;;;;;;;;;23.00;74.80;;;;;;5091739;28;19915;-74
2022/06/11 04:26:02;;;;;;;;;;;23.10;74.90;;;;;;5091284;28;19936;-72
2022/06/11 04:28:29;;;;;;;;;;;23.20;74.30;;;;;;5090320;28;19912;-74
2022/06/11 04:30:55;;;;;;;;;;;23.30;76.10;;;;;;5091547;28;19951;-74
2022/06/11 04:33:21;;;;;;;;;;;23.40;77.50;;;;;;5090136;28;19916;-72
2022/06/11 04:35:46;;;;;;;;;;;23.50;74.30;;;;;;5090283;28;19920;-72
2022/06/11 04:38:12;;;;;;;;;;;23.60;74.40;;;;;;5091664;28;19908;-72
2022/06/11 04:40:37;;;;;;;;;;;23.60;74.70;;;;;;5090091;28;19912;-73
2022/06/11 04:43:03;;;;;;;;;;;23.70;74.10;;;;;;5091434;28;20264;-72
2022/06/11 04:45:29;;;;;;;;;;;23.80;74.10;;;;;;5090394;28;20380;-72
2022/06/11 04:47:54;;;;;;;;;;;23.90;73.00;;;;;;5091359;28;19982;-72
2022/06/11 04:50:21;;;;;;;;;;;23.90;73.90;;;;;;5090979;28;20268;-72
2022/06/11 04:52:47;;;;;;;;;;;24.00;70.80;;;;;;5090006;28;19916;-73
2022/06/11 04:55:14;;;;;;;;;;;24.10;71.40;;;;;;5091917;28;20210;-73
2022/06/11 04:57:40;;;;;;;;;;;24.20;71.00;;;;;;5090399;28;19920;-72
2022/06/11 05:00:07;;;;;;;;;;;24.20;69.20;;;;;;5091760;28;19908;-72
2022/06/11 05:02:32;;;;;;;;;;;24.30;70.40;;;;;;5089927;28;20003;-73
2022/06/11 05:04:58;;;;;;;;;;;24.30;70.90;;;;;;5091700;28;19948;-73
2022/06/11 05:07:23;;;;;;;;;;;24.40;71.30;;;;;;5091318;28;19916;-73
2022/06/11 05:09:49;;;;;;;;;;;24.40;70.30;;;;;;5090146;28;19918;-72
2022/06/11 05:12:15;;;;;;;;;;;24.50;70.90;;;;;;5089941;28;19968;-73
2022/06/11 05:14:41;;;;;;;;;;;24.60;71.30;;;;;;5089758;28;20003;-73
2022/06/11 05:17:06;;;;;;;;;;;24.60;70.90;;;;;;5091253;28;19982;-72
2022/06/11 05:19:32;;;;;;;;;;;24.70;70.00;;;;;;5089872;28;20363;-73
2022/06/11 05:21:57;;;;;;;;;;;24.80;70.30;;;;;;5089852;28;19916;-73
2022/06/11 05:24:23;;;;;;;;;;;24.90;69.90;;;;;;5091225;28;20347;-73
2022/06/11 05:26:54;;;;;;;;;;;24.90;70.30;;;;;;5091372;28;19924;-73
2022/06/11 05:29:24;;;;;;;;;;;25.00;69.50;;;;;;5091254;28;19916;-72
2022/06/11 05:31:50;;;;;;;;;;;25.10;69.70;;;;;;5091356;28;19961;-74
2022/06/11 05:34:15;;;;;;;;;;;25.10;70.00;;;;;;5091058;28;19928;-73
2022/06/11 05:36:41;;;;;;;;;;;25.20;70.50;;;;;;5091115;28;19916;-74
2022/06/11 05:39:06;;;;;;;;;;;25.40;71.50;;;;;;5091157;28;19912;-73
2022/06/11 05:41:32;;;;;;;;;;;25.40;70.90;;;;;;5091258;28;19912;-73
2022/06/11 05:43:57;;;;;;;;;;;25.50;71.50;;;;;;5091033;28;19912;-73
2022/06/11 05:46:24;;;;;;;;;;;25.60;71.80;;;;;;5089931;28;19919;-72
2022/06/11 05:48:58;;;;;;;;;;;25.70;71.00;;;;;;5090818;28;20260;-72
2022/06/11 05:51:27;;;;;;;;;;;25.90;71.00;;;;;;5091030;28;19958;-72
2022/06/11 05:53:55;;;;;;;;;;;26.00;70.40;;;;;;5090643;28;19920;-72
2022/06/11 05:56:21;;;;;;;;;;;26.10;71.40;;;;;;5089626;28;19912;-71
2022/06/11 05:58:48;;;;;;;;;;;26.30;68.80;;;;;;5090716;28;20279;-72
2022/06/11 06:01:15;;;;;;;;;;;26.30;69.40;;;;;;5090810;28;20057;-72
2022/06/11 06:03:41;;;;;;;;;;;26.40;69.80;;;;;;5094292;28;19912;-73
2022/06/11 06:06:07;;;;;;;;;;;26.40;69.30;;;;;;5092957;28;19913;-73
2022/06/11 06:08:32;;;;;;;;;;;26.50;65.90;;;;;;5094272;28;19912;-72
2022/06/11 06:10:58;;;;;;;;;;;26.60;66.20;;;;;;5094341;28;20007;-73
2022/06/11 06:16:07;;;;;;;;;;;26.70;64.90;;;;;;5094672;28;19920;-72
2022/06/11 06:18:32;;;;;;;;;;;26.80;64.80;;;;;;5094048;28;19916;-71
2022/06/11 06:20:58;;;;;;;;;;;26.90;64.80;;;;;;5094173;28;19912;-72
2022/06/11 06:23:24;;;;;;;;;;;26.90;63.10;;;;;;5093868;28;19915;-73
2022/06/11 06:25:49;;;;;;;;;;;27.00;65.30;;;;;;5092360;28;19970;-71
2022/06/11 06:28:15;;;;;;;;;;;27.10;64.00;;;;;;5093851;28;19908;-73
2022/06/11 06:30:40;;;;;;;;;;;27.20;63.00;;;;;;5092753;28;19922;-72
2022/06/11 06:33:06;;;;;;;;;;;27.20;62.80;;;;;;5092350;28;19916;-72
2022/06/11 06:35:31;;;;;;;;;;;27.20;63.80;;;;;;5092723;28;19912;-71
2022/06/11 06:37:57;;;;;;;;;;;27.20;63.40;;;;;;5093737;28;20010;-71
2022/06/11 06:40:22;;;;;;;;;;;27.20;63.10;;;;;;5092663;28;19912;-71
2022/06/11 06:42:48;;;;;;;;;;;27.30;63.90;;;;;;5093448;28;19912;-72
2022/06/11 06:45:15;;;;;;;;;;;27.40;61.90;;;;;;5093925;28;19912;-72
2022/06/11 06:47:41;;;;;;;;;;;27.50;61.20;;;;;;5093716;28;20010;-72
2022/06/11 06:50:07;;;;;;;;;;;27.70;60.30;;;;;;5094210;28;19912;-72
2022/06/11 06:52:32;;;;;;;;;;;27.80;61.60;;;;;;5093686;28;20364;-72
2022/06/11 06:54:58;;;;;;;;;;;27.80;61.30;;;;;;5092237;28;20338;-72
2022/06/11 06:57:23;;;;;;;;;;;27.90;59.90;;;;;;5093569;28;19919;-72
2022/06/11 06:59:49;;;;;;;;;;;28.00;58.60;;;;;;5093605;28;19912;-72
2022/06/11 07:02:14;;;;;;;;;;;28.10;57.40;;;;;;5093803;28;19935;-72
2022/06/11 07:04:40;;;;;;;;;;;28.10;58.40;;;;;;5093244;28;19918;-72
2022/06/11 07:07:05;;;;;;;;;;;28.10;58.90;;;;;;5093675;28;20370;-72
2022/06/11 07:09:31;;;;;;;;;;;28.20;58.50;;;;;;5091805;28;19923;-72
2022/06/11 07:11:56;;;;;;;;;;;28.30;56.80;;;;;;5091331;28;20468;-75
2022/06/11 07:14:22;;;;;;;;;;;28.30;57.40;;;;;;5093184;28;19916;-73
2022/06/11 07:16:51;;;;;;;;;;;28.40;57.50;;;;;;5091637;28;19912;-73
2022/06/11 07:19:28;;;;;;;;;;;28.50;56.50;;;;;;5093095;28;19944;-72
2022/06/11 07:21:57;;;;;;;;;;;28.50;57.60;;;;;;5092873;28;19912;-72
2022/06/11 07:24:25;;;;;;;;;;;28.70;57.20;;;;;;5092815;28;19916;-73
2022/06/11 07:26:52;;;;;;;;;;;28.70;55.70;;;;;;5092928;28;19959;-73
2022/06/11 07:29:28;;;;;;;;;;;28.80;56.00;;;;;;5092512;28;20002;-74
2022/06/11 07:31:57;;;;;;;;;;;28.80;55.80;;;;;;5092732;28;19912;-73
2022/06/11 07:34:22;;;;;;;;;;;28.70;55.70;;;;;;5092544;28;19916;-73
2022/06/11 07:36:48;;;;;;;;;;;28.70;55.80;;;;;;5091227;28;20268;-74
2022/06/11 07:39:15;;;;;;;;;;;28.80;55.40;;;;;;5092720;28;19912;-73
2022/06/11 07:41:41;;;;;;;;;;;29.00;55.70;;;;;;5092235;28;19941;-74
2022/06/11 07:44:06;;;;;;;;;;;29.20;56.60;;;;;;5092535;28;19961;-73
2022/06/11 07:46:32;;;;;;;;;;;29.40;54.40;;;;;;5091088;28;20007;-72
2022/06/11 07:48:57;;;;;;;;;;;29.50;54.20;;;;;;5092641;28;20001;-73
2022/06/11 07:51:23;;;;;;;;;;;29.50;54.60;;;;;;5092383;28;20390;-73
2022/06/11 07:53:49;;;;;;;;;;;29.50;53.60;;;;;;5090924;28;20003;-73
2022/06/11 07:56:15;;;;;;;;;;;29.50;54.30;;;;;;5092347;28;20003;-72
2022/06/11 07:58:41;;;;;;;;;;;29.80;53.50;;;;;;5092361;28;19913;-73
2022/06/11 08:01:06;;;;;;;;;;;29.90;53.30;;;;;;5090902;28;19916;-73
2022/06/11 08:03:32;;;;;;;;;;;30.20;54.60;;;;;;5091943;28;20354;-73
2022/06/11 08:06:04;;;;;;;;;;;30.30;53.80;;;;;;5092014;28;19912;-72
2022/06/11 08:08:31;;;;;;;;;;;30.30;53.60;;;;;;5091989;28;19952;-72
2022/06/11 08:10:57;;;;;;;;;;;30.40;54.40;;;;;;5092163;28;19919;-72
2022/06/11 08:13:22;;;;;;;;;;;30.50;54.40;;;;;;5090605;28;19912;-72
2022/06/11 08:15:49;;;;;;;;;;;30.30;55.00;;;;;;5092008;28;19965;-72
2022/06/11 08:18:15;;;;;;;;;;;30.30;55.50;;;;;;5090761;28;20352;-72
2022/06/11 08:20:40;;;;;;;;;;;30.50;56.40;;;;;;5092432;28;19927;-72
2022/06/11 08:23:06;;;;;;;;;;;30.80;54.80;;;;;;5091559;28;19973;-73
2022/06/11 08:25:32;;;;;;;;;;;30.90;54.40;;;;;;5091277;28;19924;-72
2022/06/11 08:27:58;;;;;;;;;;;31.00;54.60;;;;;;5090819;28;19920;-72
2022/06/11 08:30:24;;;;;;;;;;;30.70;54.50;;;;;;5090203;28;19959;-72
2022/06/11 08:32:50;;;;;;;;;;;30.80;54.10;;;;;;5091510;28;19916;-72
2022/06/11 08:35:18;;;;;;;;;;;31.00;54.70;;;;;;5091923;28;19980;-71
2022/06/11 08:37:43;;;;;;;;;;;31.20;55.20;;;;;;5090218;28;19923;-72
2022/06/11 08:40:21;;;;;;;;;;;31.40;54.00;;;;;;5091985;28;20271;-72
2022/06/11 08:42:51;;;;;;;;;;;31.40;55.00;;;;;;5091642;28;19964;-73
2022/06/11 08:45:19;;;;;;;;;;;31.70;54.20;;;;;;5091869;28;19915;-71
2022/06/11 08:47:47;;;;;;;;;;;32.10;53.90;;;;;;5090162;28;19924;-72
2022/06/11 08:50:14;;;;;;;;;;;32.40;53.50;;;;;;5091753;28;19957;-71
2022/06/11 08:52:40;;;;;;;;;;;32.70;53.30;;;;;;5089982;28;19920;-71
2022/06/11 08:55:06;;;;;;;;;;;32.80;52.60;;;;;;5090146;28;19958;-72
2022/06/11 08:57:41;;;;;;;;;;;32.90;52.70;;;;;;5091454;28;19960;-71
2022/06/11 09:00:12;;;;;;;;;;;33.10;52.60;;;;;;5091642;28;20309;-71
2022/06/11 09:02:47;;;;;;;;;;;32.80;51.90;;;;;;5091119;28;19916;-71
2022/06/11 09:05:19;;;;;;;;;;;32.70;52.30;;;;;;5090149;28;19919;-71
2022/06/11 09:07:51;;;;;;;;;;;32.80;53.10;;;;;;5091610;28;19916;-70
2022/06/11 09:10:27;;;;;;;;;;;33.10;52.50;;;;;;5091190;28;19908;-70
2022/06/11 09:13:03;;;;;;;;;;;33.30;51.90;;;;;;5091184;28;19920;-71
2022/06/11 09:15:48;;;;;;;;;;;33.10;52.00;;;;;;5091693;28;19954;-69
2022/06/11 09:18:28;;;;;;;;;;;32.90;52.00;;;;;;5091290;28;20264;-71
2022/06/11 09:21:06;;;;;;;;;;;32.80;52.60;;;;;;5091068;28;19923;-69
2022/06/11 09:23:49;;;;;;;;;;;33.20;52.00;;;;;;5089780;28;20257;-70
2022/06/11 09:26:21;;;;;;;;;;;33.60;51.20;;;;;;5090808;28;19976;-71
2022/06/11 09:29:01;;;;;;;;;;;33.70;51.30;;;;;;5091246;28;19919;-69
2022/06/11 09:31:29;;;;;;;;;;;33.80;52.60;;;;;;5091106;28;19912;-69
2022/06/11 09:34:07;;;;;;;;;;;33.90;51.70;;;;;;5090827;28;19974;-71
2022/06/11 09:36:36;;;;;;;;;;;33.90;51.60;;;;;;5094648;28;19912;-70
2022/06/11 09:39:35;;;;;;;;;;;33.90;51.90;;;;;;5094833;28;19916;-69
2022/06/11 09:42:00;;;;;;;;;;;33.80;51.70;;;;;;5061051;28;19920;-69
2022/06/11 09:44:40;;;;;;;;;;;33.90;51.80;;;;;;5094739;28;19916;-69
2022/06/11 09:47:09;;;;;;;;;;;34.00;51.10;;;;;;5095044;28;20320;-72
2022/06/11 09:49:38;;;;;;;;;;;34.20;51.20;;;;;;5094891;28;20233;-71
2022/06/11 09:52:13;;;;;;;;;;;34.40;50.90;;;;;;5093063;28;19912;-69
2022/06/11 09:54:44;;;;;;;;;;;34.30;50.90;;;;;;5094581;28;19982;-70
2022/06/11 09:57:28;;;;;;;;;;;34.50;51.20;;;;;;5094343;28;19912;-68
2022/06/11 10:00:03;;;;;;;;;;;34.60;49.90;;;;;;5094585;28;19916;-69
2022/06/11 10:05:36;;;;;;;;;;;34.40;49.60;;;;;;5094632;28;19962;-69
2022/06/11 10:08:14;;;;;;;;;;;34.30;49.80;;;;;;5094471;28;19916;-69
2022/06/11 10:10:41;;;;;;;;;;;34.30;49.70;;;;;;5094052;28;20344;-70
2022/06/11 10:13:33;;;;;;;;;;;34.50;49.00;;;;;;5093985;28;19928;-70
2022/06/11 10:16:02;;;;;;;;;;;34.80;48.80;;;;;;5094119;28;20499;-70
2022/06/11 10:18:29;;;;;;;;;;;34.90;48.50;;;;;;5093965;28;19955;-69
2022/06/11 10:21:15;;;;;;;;;;;34.90;48.30;;;;;;5094211;28;20384;-71
2022/06/11 10:23:49;;;;;;;;;;;34.90;48.40;;;;;;5093770;28;19912;-71
2022/06/11 10:26:42;;;;;;;;;;;34.50;48.80;;;;;;5093575;28;19924;-70
2022/06/11 10:29:40;;;;;;;;;;;34.50;48.50;;;;;;5091043;28;19920;-69
2022/06/11 10:32:25;;;;;;;;;;;34.80;48.80;;;;;;5059478;28;20284;-70
2022/06/11 10:35:03;;;;;;;;;;;35.00;48.60;;;;;;5094027;28;19916;-69
2022/06/11 10:37:37;;;;;;;;;;;35.30;49.10;;;;;;5093706;28;20340;-70
2022/06/11 10:40:21;;;;;;;;;;;35.80;49.30;;;;;;5093526;28;20314;-70
2022/06/11 10:42:52;;;;;;;;;;;36.10;48.30;;;;;;5093589;28;20375;-70
2022/06/11 10:45:17;;;;;;;;;;;36.10;47.80;;;;;;5093792;28;20374;-70
2022/06/11 10:47:53;;;;;;;;;;;35.90;48.10;;;;;;5092508;28;19913;-70
2022/06/11 10:50:22;;;;;;;;;;;35.60;47.90;;;;;;5093735;28;19916;-70
2022/06/11 10:52:54;;;;;;;;;;;35.20;48.40;;;;;;5093457;28;20285;-69
2022/06/11 10:55:29;;;;;;;;;;;35.30;48.70;;;;;;5093722;28;20061;-70
2022/06/11 10:57:55;;;;;;;;;;;35.40;48.70;;;;;;5093223;28;19912;-70
2022/06/11 11:00:25;;;;;;;;;;;35.50;48.70;;;;;;5093631;28;20106;-70
2022/06/11 11:02:56;;;;;;;;;;;35.70;48.80;;;;;;5093269;28;19913;-69
2022/06/11 11:05:22;;;;;;;;;;;36.10;48.50;;;;;;5093561;28;19927;-72
2022/06/11 11:07:58;;;;;;;;;;;36.10;47.20;;;;;;5093018;28;19912;-71
2022/06/11 11:10:36;;;;;;;;;;;35.90;47.30;;;;;;5093205;28;19912;-71
2022/06/11 11:13:25;;;;;;;;;;;35.80;47.60;;;;;;5092892;28;20364;-72
2022/06/11 11:15:59;;;;;;;;;;;36.00;48.40;;;;;;5085169;28;19962;-70
2022/06/11 11:18:26;;;;;;;;;;;36.20;47.20;;;;;;5092734;28;20002;-69
2022/06/11 11:20:53;;;;;;;;;;;35.90;46.60;;;;;;5092709;28;19927;-70
2022/06/11 11:23:40;;;;;;;;;;;35.60;46.30;;;;;;5092786;28;20336;-69
2022/06/11 11:26:12;;;;;;;;;;;35.40;47.20;;;;;;5092604;28;19924;-70
2022/06/11 11:28:59;;;;;;;;;;;35.60;47.30;;;;;;5092760;28;19953;-71
2022/06/11 11:31:38;;;;;;;;;;;35.40;46.80;;;;;;5092650;28;19916;-70
2022/06/11 11:34:11;;;;;;;;;;;35.00;47.40;;;;;;5092557;28;19957;-71
2022/06/11 11:36:37;;;;;;;;;;;35.10;47.00;;;;;;5092951;28;19918;-72
2022/06/11 11:39:20;;;;;;;;;;;35.30;47.00;;;;;;5092768;28;20364;-71
2022/06/11 11:41:59;;;;;;;;;;;35.50;47.10;;;;;;5091025;28;19919;-69
2022/06/11 11:44:25;;;;;;;;;;;35.60;47.20;;;;;;5092529;28;19912;-69
2022/06/11 11:46:52;;;;;;;;;;;35.40;47.30;;;;;;5092425;28;20391;-70
2022/06/11 11:49:29;;;;;;;;;;;35.30;47.50;;;;;;5092319;28;19973;-69
2022/06/11 11:52:06;;;;;;;;;;;35.40;48.60;;;;;;5092212;28;19938;-70
2022/06/11 11:54:31;;;;;;;;;;;35.50;48.30;;;;;;5092320;28;20368;-69
2022/06/11 11:56:59;;;;;;;;;;;35.50;48.30;;;;;;5090676;28;19970;-71
2022/06/11 11:59:45;;;;;;;;;;;35.40;47.80;;;;;;5092041;28;20013;-72
2022/06/11 12:02:14;;;;;;;;;;;35.00;47.90;;;;;;5091978;28;19912;-69
2022/06/11 12:04:48;;;;;;;;;;;35.10;47.90;;;;;;5090536;28;19960;-70
2022/06/11 12:07:14;;;;;;;;;;;35.10;47.90;;;;;;5090984;28;20408;-70
2022/06/11 12:10:02;;;;;;;;;;;35.30;47.60;;;;;;5090244;28;20003;-70
2022/06/11 12:12:29;;;;;;;;;;;35.30;47.40;;;;;;5091802;28;20363;-70
2022/06/11 12:14:56;;;;;;;;;;;35.20;47.80;;;;;;5091966;28;19923;-72
2022/06/11 12:17:25;;;;;;;;;;;35.20;48.00;;;;;;5090472;28;19916;-71
2022/06/11 12:19:54;;;;;;;;;;;35.20;48.10;;;;;;5091959;28;20008;-70
2022/06/11 12:22:26;;;;;;;;;;;35.00;47.50;;;;;;5092092;28;19912;-70
2022/06/11 12:24:54;;;;;;;;;;;34.80;47.40;;;;;;5091600;28;19999;-70
2022/06/11 12:27:28;;;;;;;;;;;34.50;47.50;;;;;;5091735;28;19912;-70
2022/06/11 12:29:56;;;;;;;;;;;34.50;48.30;;;;;;5091907;28;19969;-70
2022/06/11 12:32:24;;;;;;;;;;;34.30;47.90;;;;;;5090257;28;20186;-70
2022/06/11 12:34:51;;;;;;;;;;;33.90;48.40;;;;;;5090089;28;19918;-70
2022/06/11 12:37:20;;;;;;;;;;;33.60;48.30;;;;;;5091637;28;19912;-70
2022/06/11 12:39:45;;;;;;;;;;;33.40;49.00;;;;;;5091746;28;19919;-71
2022/06/11 12:42:14;;;;;;;;;;;33.20;49.00;;;;;;5091523;28;19920;-70
2022/06/11 12:44:42;;;;;;;;;;;33.10;49.30;;;;;;5091535;28;19947;-71
2022/06/11 12:47:21;;;;;;;;;;;33.00;49.40;;;;;;5091492;28;20367;-70
2022/06/11 12:49:56;;;;;;;;;;;32.90;49.10;;;;;;5091716;28;19916;-70
2022/06/11 12:52:22;;;;;;;;;;;32.70;49.60;;;;;;5091411;28;20294;-70
2022/06/11 12:54:56;;;;;;;;;;;32.60;49.50;;;;;;5091555;28;19919;-70
2022/06/11 12:57:41;;;;;;;;;;;32.60;49.30;;;;;;5089972;28;20372;-70
2022/06/11 13:00:37;;;;;;;;;;;32.50;50.20;;;;;;5090020;28;20342;-70
2022/06/11 13:03:14;;;;;;;;;;;32.10;49.10;;;;;;5091168;28;19919;-71
2022/06/11 13:05:50;;;;;;;;;;;32.00;49.50;;;;;;5091649;28;19916;-70
2022/06/11 13:08:18;;;;;;;;;;;31.80;49.90;;;;;;5091368;28;19995;-71
2022/06/11 13:10:54;;;;;;;;;;;31.80;50.50;;;;;;5092339;28;19912;-70
2022/06/11 13:13:22;;;;;;;;;;;31.90;50.80;;;;;;5095692;28;20318;-70
2022/06/11 13:15:54;;;;;;;;;;;32.00;50.20;;;;;;5093902;28;20456;-71
2022/06/11 13:18:26;;;;;;;;;;;32.10;51.40;;;;;;5095453;28;19909;-71
2022/06/11 13:21:03;;;;;;;;;;;32.30;51.40;;;;;;5093742;28;20473;-71
2022/06/11 13:23:29;;;;;;;;;;;32.40;50.50;;;;;;5095049;28;19944;-72
2022/06/11 13:26:13;;;;;;;;;;;32.40;50.80;;;;;;5094841;28;19963;-71
2022/06/11 13:28:40;;;;;;;;;;;32.30;50.20;;;;;;5093429;28;19912;-71
2022/06/11 13:31:24;;;;;;;;;;;32.20;49.60;;;;;;5093578;28;19912;-71
2022/06/11 13:34:00;;;;;;;;;;;32.10;49.90;;;;;;5094933;28;19961;-70
2022/06/11 13:36:42;;;;;;;;;;;31.90;50.10;;;;;;5094877;28;19919;-70
2022/06/11 13:39:19;;;;;;;;;;;31.90;50.50;;;;;;5094794;28;19912;-72
2022/06/11 13:41:48;;;;;;;;;;;31.80;50.70;;;;;;5094831;28;19912;-71
2022/06/11 13:44:19;;;;;;;;;;;31.70;51.20;;;;;;5093279;28;19939;-70
2022/06/11 13:46:57;;;;;;;;;;;31.60;51.20;;;;;;5094799;28;19913;-70
2022/06/11 13:49:41;;;;;;;;;;;31.70;51.00;;;;;;5094590;28;20003;-68
2022/06/11 13:52:15;;;;;;;;;;;31.60;51.30;;;;;;5094930;28;19988;-68
2022/06/11 13:57:36;;;;;;;;;;;31.20;51.50;;;;;;5074338;28;19966;-71
2022/06/11 14:00:04;;;;;;;;;;;31.10;52.30;;;;;;5074346;28;20008;-71
2022/06/11 14:02:30;;;;;;;;;;;31.00;52.60;;;;;;5073900;28;20288;-72
2022/06/11 14:04:59;;;;;;;;;;;31.00;52.50;;;;;;5074275;28;19917;-70
2022/06/11 14:07:27;;;;;;;;;;;30.90;51.70;;;;;;5074210;28;19961;-72
2022/06/11 14:10:22;;;;;;;;;;;30.80;51.70;;;;;;5072781;28;19916;-71
2022/06/11 14:12:49;;;;;;;;;;;30.60;51.80;;;;;;5074121;28;20367;-70
2022/06/11 14:15:27;;;;;;;;;;;30.50;51.80;;;;;;5074305;28;19952;-71
2022/06/11 14:17:55;;;;;;;;;;;30.50;52.10;;;;;;5073980;28;19912;-71
2022/06/11 14:20:33;;;;;;;;;;;30.60;52.50;;;;;;5074362;28;19939;-72
2022/06/11 14:22:59;;;;;;;;;;;30.60;52.80;;;;;;5072694;28;20435;-71
2022/06/11 14:25:44;;;;;;;;;;;30.60;52.60;;;;;;5072540;28;20011;-72
2022/06/11 14:28:16;;;;;;;;;;;30.60;53.10;;;;;;5073877;28;19996;-71
2022/06/11 14:30:53;;;;;;;;;;;30.60;52.70;;;;;;5072395;28;19916;-70
2022/06/11 14:33:20;;;;;;;;;;;30.50;52.90;;;;;;5073702;28;19982;-70
2022/06/11 14:35:48;;;;;;;;;;;30.40;53.70;;;;;;5072153;28;19956;-70
2022/06/11 14:38:29;;;;;;;;;;;30.40;53.50;;;;;;5073588;28;20624;-70
2022/06/11 14:41:17;;;;;;;;;;;30.30;52.80;;;;;;5073801;28;19962;-72
2022/06/11 14:43:58;;;;;;;;;;;30.20;52.40;;;;;;5071917;28;19916;-71